Libertytown, MD (21762)

2:52 PM EDT on September 20, 2014 (GMT -0400)
Walkersville | Change Station
CLOSE
Current Station
Personal Weather Station
Location: Walkersville, MD
Elevation: 308 ft
Nearby Weather Stations

Elev 308 ft 39.48 °N, 77.33 °W | Updated 3 minutes ago

Clear
Clear
80.2 °F
Feels Like 82 °F
N
1.0
Wind Variable Wind from SSW
Gusts 7.0 mph

Today
High -- | Low -- °F
--% Chance of Precip.
Yesterday
High -- | Low -- °F
Precip. -- in
6:54 AM 7:09 PM
Waning Crescent, 11% visible
Pressure 30.15 in
Visibility 10.0 miles
Clouds Scattered Clouds 4000 ft
Heat Index 82 °F
Dew Point 63 °F
Humidity 56%
Rainfall 0.00 in
Snow Depth Not available.
UV 5 out of 12
Pollen 3.90 out of 12
Air Quality Not available.
Flu Activity Not available.
METAR KDMW 201840Z AUTO 17010G15KT 10SM SCT040 27/15 A3015 RMK AO2

More Conditions Fewer Conditions

Pressure 30.15 in
Visibility 10.0 miles
Clouds Scattered Clouds 4000 ft
Heat Index 82 °F
Dew Point 63 °F
Humidity 56%
Rainfall 0.00 in
Snow Depth Not available.
UV 5 out of 12
Pollen 3.90 out of 12
Air Quality Not available.
Flu Activity Not available.
METAR KDMW 201840Z AUTO 17010G15KT 10SM SCT040 27/15 A3015 RMK AO2

More Conditions Fewer Conditions

10-Day Weather Forecast

Almanac

Astronomy

Sep. 20, 2014 Rise Set
Actual Time 6:54 AM EDT 7:09 PM EDT
Civil Twilight 6:27 AM EDT 7:36 PM EDT
Nautical Twilight 5:56 AM EDT 8:07 PM EDT
Astronomical Twilight 5:24 AM EDT 8:39 PM EDT
Moon 3:32 AM EDT 5:11 PM EDT
Length of Visible Light 13h 08m
Length of Day
12h 14m
Tomorrow will be 2m 34s shorter.
Waning Crescent, 11% of the Moon is Illuminated
Today
Waning Crescent
Sep 24
New
Oct 1
First Quarter
Oct 8
Full
Oct 15
Last Quarter

Today's Extremes

State Highs State Lows

Community

WunderPhotos

Upload Photos

1,754,923 photos uploaded!

WunderBlogs® & News

Nearby

Snow Depth

Station Depth Elevation
No new snow has been reported.

Earthquake Activity

City Distance Mag. Time & Date
No recent earthquake activity has been reported nearby.
Minimum magnitude displayed is 2.5.

Coastal Water Temperatures

Place Temperature
No Stations Reporting

Nearby Weather Stations